sensor_id;sensor_type;location;lat;lon;timestamp;P1;durP1;ratioP1;P2;durP2;ratioP2
24102;SDS011;12278;53.058;9.028;2023-03-18T00:01:48;4.85;;;3.05;;
24102;SDS011;12278;53.058;9.028;2023-03-18T00:05:48;4.00;;;3.08;;
24102;SDS011;12278;53.058;9.028;2023-03-18T00:09:51;6.30;;;4.22;;
24102;SDS011;12278;53.058;9.028;2023-03-18T00:13:52;7.90;;;3.33;;
24102;SDS011;12278;53.058;9.028;2023-03-18T00:17:53;6.85;;;3.38;;
24102;SDS011;12278;53.058;9.028;2023-03-18T00:21:54;3.83;;;3.15;;
24102;SDS011;12278;53.058;9.028;2023-03-18T00:25:55;4.30;;;3.30;;
24102;SDS011;12278;53.058;9.028;2023-03-18T00:29:57;6.80;;;3.70;;
24102;SDS011;12278;53.058;9.028;2023-03-18T00:33:57;7.82;;;3.20;;
24102;SDS011;12278;53.058;9.028;2023-03-18T00:37:58;4.72;;;3.70;;
24102;SDS011;12278;53.058;9.028;2023-03-18T00:42:05;3.38;;;2.85;;
24102;SDS011;12278;53.058;9.028;2023-03-18T00:46:09;4.75;;;3.47;;
24102;SDS011;12278;53.058;9.028;2023-03-18T00:50:11;4.68;;;3.40;;
24102;SDS011;12278;53.058;9.028;2023-03-18T00:54:12;4.00;;;3.58;;
24102;SDS011;12278;53.058;9.028;2023-03-18T00:58:20;4.28;;;3.70;;
24102;SDS011;12278;53.058;9.028;2023-03-18T01:02:21;4.85;;;3.22;;
24102;SDS011;12278;53.058;9.028;2023-03-18T01:06:26;5.97;;;3.65;;
24102;SDS011;12278;53.058;9.028;2023-03-18T01:10:28;6.07;;;3.95;;
24102;SDS011;12278;53.058;9.028;2023-03-18T01:14:29;6.20;;;3.60;;
24102;SDS011;12278;53.058;9.028;2023-03-18T01:18:30;5.43;;;3.33;;
24102;SDS011;12278;53.058;9.028;2023-03-18T01:22:31;5.28;;;3.55;;
24102;SDS011;12278;53.058;9.028;2023-03-18T01:26:31;5.65;;;3.65;;
24102;SDS011;12278;53.058;9.028;2023-03-18T01:30:32;4.28;;;3.50;;
24102;SDS011;12278;53.058;9.028;2023-03-18T01:34:34;3.83;;;3.05;;
24102;SDS011;12278;53.058;9.028;2023-03-18T01:38:35;5.47;;;2.88;;
24102;SDS011;12278;53.058;9.028;2023-03-18T01:42:36;6.15;;;3.75;;
24102;SDS011;12278;53.058;9.028;2023-03-18T01:46:43;3.88;;;3.53;;
24102;SDS011;12278;53.058;9.028;2023-03-18T01:50:55;5.55;;;3.28;;
24102;SDS011;12278;53.058;9.028;2023-03-18T01:55:06;3.55;;;2.92;;
24102;SDS011;12278;53.058;9.028;2023-03-18T01:59:16;5.05;;;3.30;;
24102;SDS011;12278;53.058;9.028;2023-03-18T02:03:19;8.43;;;3.53;;
24102;SDS011;12278;53.058;9.028;2023-03-18T02:07:25;7.07;;;3.83;;
24102;SDS011;12278;53.058;9.028;2023-03-18T02:11:32;6.47;;;3.58;;
24102;SDS011;12278;53.058;9.028;2023-03-18T02:15:51;4.90;;;4.20;;
24102;SDS011;12278;53.058;9.028;2023-03-18T02:29:12;8.25;;;4.57;;
24102;SDS011;12278;53.058;9.028;2023-03-18T02:33:15;4.53;;;3.88;;
24102;SDS011;12278;53.058;9.028;2023-03-18T02:37:17;4.68;;;4.13;;
24102;SDS011;12278;53.058;9.028;2023-03-18T02:41:19;5.30;;;4.38;;
24102;SDS011;12278;53.058;9.028;2023-03-18T02:49:28;5.40;;;4.15;;
24102;SDS011;12278;53.058;9.028;2023-03-18T02:53:30;4.70;;;4.22;;
24102;SDS011;12278;53.058;9.028;2023-03-18T02:57:31;6.63;;;4.55;;
24102;SDS011;12278;53.058;9.028;2023-03-18T03:01:32;5.93;;;4.20;;
24102;SDS011;12278;53.058;9.028;2023-03-18T03:05:33;6.30;;;4.72;;
24102;SDS011;12278;53.058;9.028;2023-03-18T03:09:34;7.25;;;4.78;;
24102;SDS011;12278;53.058;9.028;2023-03-18T03:13:53;8.88;;;4.90;;
24102;SDS011;12278;53.058;9.028;2023-03-18T03:17:54;8.00;;;5.03;;
24102;SDS011;12278;53.058;9.028;2023-03-18T03:21:54;6.57;;;5.15;;
24102;SDS011;12278;53.058;9.028;2023-03-18T03:26:02;9.02;;;5.32;;
24102;SDS011;12278;53.058;9.028;2023-03-18T03:30:05;7.70;;;5.50;;
24102;SDS011;12278;53.058;9.028;2023-03-18T03:34:08;8.68;;;4.85;;
24102;SDS011;12278;53.058;9.028;2023-03-18T03:38:09;8.88;;;5.38;;
24102;SDS011;12278;53.058;9.028;2023-03-18T03:46:17;9.55;;;5.60;;
24102;SDS011;12278;53.058;9.028;2023-03-18T03:50:18;8.95;;;5.93;;
24102;SDS011;12278;53.058;9.028;2023-03-18T03:54:19;8.07;;;6.22;;
24102;SDS011;12278;53.058;9.028;2023-03-18T03:58:22;8.48;;;6.20;;
24102;SDS011;12278;53.058;9.028;2023-03-18T04:02:22;7.25;;;5.80;;
24102;SDS011;12278;53.058;9.028;2023-03-18T04:06:26;7.07;;;5.60;;
24102;SDS011;12278;53.058;9.028;2023-03-18T04:10:26;9.88;;;6.20;;
24102;SDS011;12278;53.058;9.028;2023-03-18T04:14:27;7.15;;;6.20;;
24102;SDS011;12278;53.058;9.028;2023-03-18T04:18:28;9.23;;;5.97;;
24102;SDS011;12278;53.058;9.028;2023-03-18T04:22:29;7.85;;;6.00;;
24102;SDS011;12278;53.058;9.028;2023-03-18T04:26:31;9.32;;;6.47;;
24102;SDS011;12278;53.058;9.028;2023-03-18T04:30:31;12.50;;;6.82;;
24102;SDS011;12278;53.058;9.028;2023-03-18T04:34:32;10.80;;;5.72;;
24102;SDS011;12278;53.058;9.028;2023-03-18T04:38:33;8.75;;;6.72;;
24102;SDS011;12278;53.058;9.028;2023-03-18T04:42:34;13.05;;;6.93;;
24102;SDS011;12278;53.058;9.028;2023-03-18T04:46:35;12.48;;;6.97;;
24102;SDS011;12278;53.058;9.028;2023-03-18T04:50:36;10.02;;;7.32;;
24102;SDS011;12278;53.058;9.028;2023-03-18T04:54:37;12.70;;;7.38;;
24102;SDS011;12278;53.058;9.028;2023-03-18T04:58:38;11.80;;;7.15;;
24102;SDS011;12278;53.058;9.028;2023-03-18T05:02:39;9.40;;;6.53;;
24102;SDS011;12278;53.058;9.028;2023-03-18T05:06:40;9.48;;;7.13;;
24102;SDS011;12278;53.058;9.028;2023-03-18T05:10:41;11.68;;;6.50;;
24102;SDS011;12278;53.058;9.028;2023-03-18T05:14:42;10.35;;;7.38;;
24102;SDS011;12278;53.058;9.028;2023-03-18T05:18:43;8.57;;;6.78;;
24102;SDS011;12278;53.058;9.028;2023-03-18T05:22:45;9.65;;;7.53;;
24102;SDS011;12278;53.058;9.028;2023-03-18T05:26:46;9.45;;;6.97;;
24102;SDS011;12278;53.058;9.028;2023-03-18T05:30:48;8.85;;;7.28;;
24102;SDS011;12278;53.058;9.028;2023-03-18T05:34:49;10.02;;;7.28;;
24102;SDS011;12278;53.058;9.028;2023-03-18T05:38:49;11.88;;;7.13;;
24102;SDS011;12278;53.058;9.028;2023-03-18T05:42:50;13.18;;;7.43;;
24102;SDS011;12278;53.058;9.028;2023-03-18T05:46:51;14.00;;;6.90;;
24102;SDS011;12278;53.058;9.028;2023-03-18T05:50:52;10.85;;;7.47;;
24102;SDS011;12278;53.058;9.028;2023-03-18T05:54:52;12.52;;;8.40;;
24102;SDS011;12278;53.058;9.028;2023-03-18T05:58:53;9.98;;;7.50;;
24102;SDS011;12278;53.058;9.028;2023-03-18T06:02:54;12.07;;;7.78;;
24102;SDS011;12278;53.058;9.028;2023-03-18T06:06:56;13.18;;;6.80;;
24102;SDS011;12278;53.058;9.028;2023-03-18T06:10:57;14.88;;;7.53;;
24102;SDS011;12278;53.058;9.028;2023-03-18T06:14:57;11.27;;;8.15;;
24102;SDS011;12278;53.058;9.028;2023-03-18T06:18:58;13.52;;;8.20;;
24102;SDS011;12278;53.058;9.028;2023-03-18T06:22:59;9.18;;;7.18;;
24102;SDS011;12278;53.058;9.028;2023-03-18T06:27:00;9.07;;;7.13;;
24102;SDS011;12278;53.058;9.028;2023-03-18T06:31:01;12.35;;;8.90;;
24102;SDS011;12278;53.058;9.028;2023-03-18T06:35:21;13.35;;;8.10;;
24102;SDS011;12278;53.058;9.028;2023-03-18T06:39:43;15.35;;;8.23;;
24102;SDS011;12278;53.058;9.028;2023-03-18T06:43:43;14.55;;;7.65;;
24102;SDS011;12278;53.058;9.028;2023-03-18T06:47:46;10.35;;;7.85;;
24102;SDS011;12278;53.058;9.028;2023-03-18T06:51:48;12.82;;;8.02;;
24102;SDS011;12278;53.058;9.028;2023-03-18T06:55:49;12.35;;;7.63;;
24102;SDS011;12278;53.058;9.028;2023-03-18T06:59:49;11.45;;;7.88;;
24102;SDS011;12278;53.058;9.028;2023-03-18T07:03:57;10.43;;;8.00;;
24102;SDS011;12278;53.058;9.028;2023-03-18T07:07:57;9.73;;;8.20;;
24102;SDS011;12278;53.058;9.028;2023-03-18T07:12:01;12.02;;;7.50;;
24102;SDS011;12278;53.058;9.028;2023-03-18T07:16:06;14.60;;;8.25;;
24102;SDS011;12278;53.058;9.028;2023-03-18T07:20:06;10.70;;;8.27;;
24102;SDS011;12278;53.058;9.028;2023-03-18T07:24:08;11.52;;;8.77;;
24102;SDS011;12278;53.058;9.028;2023-03-18T07:28:10;14.23;;;8.40;;
24102;SDS011;12278;53.058;9.028;2023-03-18T07:32:10;11.13;;;8.18;;
24102;SDS011;12278;53.058;9.028;2023-03-18T07:36:11;8.23;;;7.18;;
24102;SDS011;12278;53.058;9.028;2023-03-18T07:40:12;19.95;;;7.95;;
24102;SDS011;12278;53.058;9.028;2023-03-18T07:44:13;12.07;;;7.78;;
24102;SDS011;12278;53.058;9.028;2023-03-18T07:48:14;9.93;;;7.95;;
24102;SDS011;12278;53.058;9.028;2023-03-18T07:52:16;10.07;;;7.28;;
24102;SDS011;12278;53.058;9.028;2023-03-18T07:56:19;12.10;;;8.27;;
24102;SDS011;12278;53.058;9.028;2023-03-18T08:00:20;14.52;;;8.63;;
24102;SDS011;12278;53.058;9.028;2023-03-18T08:04:21;11.68;;;8.48;;
24102;SDS011;12278;53.058;9.028;2023-03-18T08:08:25;9.02;;;7.70;;
24102;SDS011;12278;53.058;9.028;2023-03-18T08:12:27;11.43;;;8.07;;
24102;SDS011;12278;53.058;9.028;2023-03-18T08:16:28;10.00;;;8.10;;
24102;SDS011;12278;53.058;9.028;2023-03-18T08:20:28;11.65;;;8.15;;
24102;SDS011;12278;53.058;9.028;2023-03-18T08:24:29;11.85;;;8.70;;
24102;SDS011;12278;53.058;9.028;2023-03-18T08:28:30;13.02;;;8.50;;
24102;SDS011;12278;53.058;9.028;2023-03-18T08:32:30;9.95;;;8.18;;
24102;SDS011;12278;53.058;9.028;2023-03-18T08:36:31;12.70;;;8.43;;
24102;SDS011;12278;53.058;9.028;2023-03-18T08:40:36;11.60;;;8.38;;
24102;SDS011;12278;53.058;9.028;2023-03-18T08:44:38;14.30;;;8.73;;
24102;SDS011;12278;53.058;9.028;2023-03-18T08:48:39;12.10;;;8.48;;
24102;SDS011;12278;53.058;9.028;2023-03-18T08:52:40;12.07;;;8.52;;
24102;SDS011;12278;53.058;9.028;2023-03-18T08:56:41;10.82;;;8.77;;
24102;SDS011;12278;53.058;9.028;2023-03-18T09:00:42;12.73;;;9.40;;
24102;SDS011;12278;53.058;9.028;2023-03-18T09:04:43;10.52;;;8.90;;
24102;SDS011;12278;53.058;9.028;2023-03-18T09:08:44;15.90;;;8.25;;
24102;SDS011;12278;53.058;9.028;2023-03-18T09:12:45;10.00;;;8.05;;
24102;SDS011;12278;53.058;9.028;2023-03-18T09:16:46;10.38;;;8.82;;
24102;SDS011;12278;53.058;9.028;2023-03-18T09:20:47;13.35;;;9.77;;
24102;SDS011;12278;53.058;9.028;2023-03-18T09:24:48;12.48;;;8.85;;
24102;SDS011;12278;53.058;9.028;2023-03-18T09:28:49;16.25;;;10.05;;
24102;SDS011;12278;53.058;9.028;2023-03-18T09:32:49;14.00;;;9.45;;
24102;SDS011;12278;53.058;9.028;2023-03-18T09:36:58;12.70;;;9.20;;
24102;SDS011;12278;53.058;9.028;2023-03-18T09:45:34;13.20;;;9.68;;
24102;SDS011;12278;53.058;9.028;2023-03-18T09:58:15;12.57;;;9.63;;
24102;SDS011;12278;53.058;9.028;2023-03-18T10:02:34;12.20;;;9.15;;
24102;SDS011;12278;53.058;9.028;2023-03-18T10:06:40;13.93;;;9.57;;
24102;SDS011;12278;53.058;9.028;2023-03-18T10:10:44;15.18;;;9.95;;
24102;SDS011;12278;53.058;9.028;2023-03-18T10:19:17;16.38;;;10.45;;
24102;SDS011;12278;53.058;9.028;2023-03-18T10:27:36;15.18;;;11.25;;
24102;SDS011;12278;53.058;9.028;2023-03-18T10:40:47;16.02;;;10.75;;
24102;SDS011;12278;53.058;9.028;2023-03-18T10:44:48;15.73;;;11.02;;
24102;SDS011;12278;53.058;9.028;2023-03-18T10:48:54;17.25;;;12.30;;
24102;SDS011;12278;53.058;9.028;2023-03-18T10:57:00;15.77;;;13.00;;
24102;SDS011;12278;53.058;9.028;2023-03-18T11:01:01;18.67;;;12.27;;
24102;SDS011;12278;53.058;9.028;2023-03-18T11:05:02;19.58;;;12.80;;
24102;SDS011;12278;53.058;9.028;2023-03-18T11:09:18;17.40;;;11.82;;
24102;SDS011;12278;53.058;9.028;2023-03-18T11:13:22;18.17;;;12.23;;
24102;SDS011;12278;53.058;9.028;2023-03-18T11:17:33;18.27;;;12.00;;
24102;SDS011;12278;53.058;9.028;2023-03-18T11:21:36;15.48;;;11.90;;
24102;SDS011;12278;53.058;9.028;2023-03-18T11:25:38;13.10;;;11.20;;
24102;SDS011;12278;53.058;9.028;2023-03-18T11:29:40;15.07;;;11.90;;
24102;SDS011;12278;53.058;9.028;2023-03-18T11:33:59;16.73;;;12.02;;
24102;SDS011;12278;53.058;9.028;2023-03-18T11:38:20;15.40;;;12.20;;
24102;SDS011;12278;53.058;9.028;2023-03-18T11:42:28;17.00;;;12.40;;
24102;SDS011;12278;53.058;9.028;2023-03-18T11:46:36;14.95;;;12.77;;
24102;SDS011;12278;53.058;9.028;2023-03-18T12:03:53;15.30;;;10.63;;
24102;SDS011;12278;53.058;9.028;2023-03-18T12:08:22;11.90;;;10.27;;
24102;SDS011;12278;53.058;9.028;2023-03-18T12:21:19;13.95;;;10.48;;
24102;SDS011;12278;53.058;9.028;2023-03-18T12:25:30;12.05;;;10.27;;
24102;SDS011;12278;53.058;9.028;2023-03-18T12:29:43;10.95;;;8.23;;
24102;SDS011;12278;53.058;9.028;2023-03-18T12:33:57;10.80;;;9.05;;
24102;SDS011;12278;53.058;9.028;2023-03-18T12:50:27;12.07;;;8.82;;
24102;SDS011;12278;53.058;9.028;2023-03-18T12:54:35;11.13;;;8.80;;
24102;SDS011;12278;53.058;9.028;2023-03-18T12:58:50;8.70;;;7.80;;
24102;SDS011;12278;53.058;9.028;2023-03-18T13:03:22;12.18;;;8.43;;
24102;SDS011;12278;53.058;9.028;2023-03-18T13:07:49;10.63;;;8.43;;
24102;SDS011;12278;53.058;9.028;2023-03-18T13:11:58;10.93;;;9.05;;
24102;SDS011;12278;53.058;9.028;2023-03-18T13:16:13;8.90;;;6.65;;
24102;SDS011;12278;53.058;9.028;2023-03-18T13:20:26;8.65;;;7.20;;
24102;SDS011;12278;53.058;9.028;2023-03-18T13:42:36;11.80;;;8.05;;
24102;SDS011;12278;53.058;9.028;2023-03-18T13:46:47;11.23;;;8.50;;
24102;SDS011;12278;53.058;9.028;2023-03-18T13:50:56;10.82;;;8.32;;
24102;SDS011;12278;53.058;9.028;2023-03-18T13:54:59;10.15;;;7.93;;
24102;SDS011;12278;53.058;9.028;2023-03-18T14:07:47;9.05;;;6.80;;
24102;SDS011;12278;53.058;9.028;2023-03-18T14:11:50;12.68;;;7.43;;
24102;SDS011;12278;53.058;9.028;2023-03-18T14:15:52;8.18;;;6.85;;
24102;SDS011;12278;53.058;9.028;2023-03-18T14:19:56;8.73;;;6.60;;
24102;SDS011;12278;53.058;9.028;2023-03-18T14:28:22;8.48;;;6.65;;
24102;SDS011;12278;53.058;9.028;2023-03-18T14:40:54;7.30;;;6.45;;
24102;SDS011;12278;53.058;9.028;2023-03-18T14:45:01;7.00;;;6.22;;
24102;SDS011;12278;53.058;9.028;2023-03-18T14:53:49;6.43;;;5.15;;
24102;SDS011;12278;53.058;9.028;2023-03-18T14:57:53;6.15;;;4.78;;
24102;SDS011;12278;53.058;9.028;2023-03-18T15:01:54;5.00;;;4.50;;
24102;SDS011;12278;53.058;9.028;2023-03-18T15:06:01;5.78;;;4.40;;
24102;SDS011;12278;53.058;9.028;2023-03-18T15:14:27;6.88;;;5.55;;
24102;SDS011;12278;53.058;9.028;2023-03-18T15:18:33;7.07;;;4.97;;
24102;SDS011;12278;53.058;9.028;2023-03-18T15:22:38;6.90;;;5.30;;
24102;SDS011;12278;53.058;9.028;2023-03-18T15:26:53;6.65;;;5.40;;
24102;SDS011;12278;53.058;9.028;2023-03-18T15:31:10;6.53;;;5.63;;
24102;SDS011;12278;53.058;9.028;2023-03-18T15:35:23;7.72;;;6.32;;
24102;SDS011;12278;53.058;9.028;2023-03-18T15:43:40;8.82;;;6.03;;
24102;SDS011;12278;53.058;9.028;2023-03-18T15:47:44;9.23;;;6.30;;
24102;SDS011;12278;53.058;9.028;2023-03-18T15:52:01;10.13;;;7.63;;
24102;SDS011;12278;53.058;9.028;2023-03-18T15:56:06;8.55;;;7.60;;
24102;SDS011;12278;53.058;9.028;2023-03-18T16:00:21;8.43;;;7.60;;
24102;SDS011;12278;53.058;9.028;2023-03-18T16:04:29;10.13;;;8.27;;
24102;SDS011;12278;53.058;9.028;2023-03-18T16:08:33;12.23;;;7.93;;
24102;SDS011;12278;53.058;9.028;2023-03-18T16:12:41;9.43;;;7.93;;
24102;SDS011;12278;53.058;9.028;2023-03-18T16:16:42;8.75;;;7.60;;
24102;SDS011;12278;53.058;9.028;2023-03-18T16:21:04;9.93;;;7.53;;
24102;SDS011;12278;53.058;9.028;2023-03-18T16:25:18;8.55;;;7.57;;
24102;SDS011;12278;53.058;9.028;2023-03-18T16:33:27;10.57;;;8.52;;
24102;SDS011;12278;53.058;9.028;2023-03-18T16:37:34;11.32;;;8.48;;
24102;SDS011;12278;53.058;9.028;2023-03-18T16:41:35;11.30;;;9.80;;
24102;SDS011;12278;53.058;9.028;2023-03-18T16:45:36;11.63;;;9.85;;
24102;SDS011;12278;53.058;9.028;2023-03-18T16:49:46;11.93;;;9.23;;
24102;SDS011;12278;53.058;9.028;2023-03-18T16:53:50;11.48;;;9.23;;
24102;SDS011;12278;53.058;9.028;2023-03-18T16:57:56;11.85;;;9.00;;
24102;SDS011;12278;53.058;9.028;2023-03-18T17:02:01;10.50;;;9.48;;
24102;SDS011;12278;53.058;9.028;2023-03-18T17:06:29;10.48;;;9.48;;
24102;SDS011;12278;53.058;9.028;2023-03-18T17:10:54;10.38;;;8.93;;
24102;SDS011;12278;53.058;9.028;2023-03-18T17:14:57;10.70;;;8.85;;
24102;SDS011;12278;53.058;9.028;2023-03-18T17:18:58;12.00;;;9.75;;
24102;SDS011;12278;53.058;9.028;2023-03-18T17:23:00;10.70;;;9.55;;
24102;SDS011;12278;53.058;9.028;2023-03-18T17:27:00;14.20;;;10.27;;
24102;SDS011;12278;53.058;9.028;2023-03-18T17:31:02;11.52;;;9.95;;
24102;SDS011;12278;53.058;9.028;2023-03-18T17:35:13;11.75;;;8.43;;
24102;SDS011;12278;53.058;9.028;2023-03-18T17:39:20;10.75;;;8.73;;
24102;SDS011;12278;53.058;9.028;2023-03-18T17:43:33;10.87;;;9.00;;
24102;SDS011;12278;53.058;9.028;2023-03-18T17:47:35;11.50;;;9.00;;
24102;SDS011;12278;53.058;9.028;2023-03-18T17:51:35;11.15;;;9.38;;
24102;SDS011;12278;53.058;9.028;2023-03-18T17:55:37;13.20;;;9.90;;
24102;SDS011;12278;53.058;9.028;2023-03-18T17:59:38;12.05;;;9.65;;
24102;SDS011;12278;53.058;9.028;2023-03-18T18:03:39;11.30;;;10.00;;
24102;SDS011;12278;53.058;9.028;2023-03-18T18:07:41;11.60;;;9.95;;
24102;SDS011;12278;53.058;9.028;2023-03-18T18:11:44;17.25;;;11.15;;
24102;SDS011;12278;53.058;9.028;2023-03-18T18:15:50;11.75;;;10.32;;
24102;SDS011;12278;53.058;9.028;2023-03-18T18:19:57;12.20;;;10.30;;
24102;SDS011;12278;53.058;9.028;2023-03-18T18:23:57;14.63;;;11.13;;
24102;SDS011;12278;53.058;9.028;2023-03-18T18:28:08;14.68;;;11.68;;
24102;SDS011;12278;53.058;9.028;2023-03-18T18:32:16;13.32;;;10.90;;
24102;SDS011;12278;53.058;9.028;2023-03-18T18:36:17;11.63;;;10.43;;
24102;SDS011;12278;53.058;9.028;2023-03-18T18:40:18;13.40;;;10.82;;
24102;SDS011;12278;53.058;9.028;2023-03-18T18:44:19;12.30;;;10.93;;
24102;SDS011;12278;53.058;9.028;2023-03-18T18:48:26;12.75;;;11.40;;
24102;SDS011;12278;53.058;9.028;2023-03-18T18:52:32;15.35;;;11.00;;
24102;SDS011;12278;53.058;9.028;2023-03-18T18:56:33;15.60;;;11.57;;
24102;SDS011;12278;53.058;9.028;2023-03-18T19:00:35;13.43;;;11.60;;
24102;SDS011;12278;53.058;9.028;2023-03-18T19:04:36;14.55;;;11.63;;
24102;SDS011;12278;53.058;9.028;2023-03-18T19:08:37;13.65;;;11.93;;
24102;SDS011;12278;53.058;9.028;2023-03-18T19:12:46;13.93;;;11.90;;
24102;SDS011;12278;53.058;9.028;2023-03-18T19:16:48;16.58;;;12.75;;
24102;SDS011;12278;53.058;9.028;2023-03-18T19:20:50;15.45;;;12.70;;
24102;SDS011;12278;53.058;9.028;2023-03-18T19:24:52;14.50;;;12.60;;
24102;SDS011;12278;53.058;9.028;2023-03-18T19:28:52;19.05;;;12.95;;
24102;SDS011;12278;53.058;9.028;2023-03-18T19:32:55;16.55;;;13.50;;
24102;SDS011;12278;53.058;9.028;2023-03-18T19:36:58;17.13;;;12.93;;
24102;SDS011;12278;53.058;9.028;2023-03-18T19:41:01;14.30;;;12.23;;
24102;SDS011;12278;53.058;9.028;2023-03-18T19:45:04;16.05;;;13.15;;
24102;SDS011;12278;53.058;9.028;2023-03-18T19:49:15;15.63;;;13.10;;
24102;SDS011;12278;53.058;9.028;2023-03-18T19:53:17;16.02;;;13.02;;
24102;SDS011;12278;53.058;9.028;2023-03-18T19:57:28;16.40;;;12.82;;
24102;SDS011;12278;53.058;9.028;2023-03-18T20:01:30;15.13;;;12.17;;
24102;SDS011;12278;53.058;9.028;2023-03-18T20:05:31;12.68;;;11.38;;
24102;SDS011;12278;53.058;9.028;2023-03-18T20:09:32;11.25;;;10.15;;
24102;SDS011;12278;53.058;9.028;2023-03-18T20:13:32;12.10;;;10.73;;
24102;SDS011;12278;53.058;9.028;2023-03-18T20:17:46;9.82;;;8.93;;
24102;SDS011;12278;53.058;9.028;2023-03-18T20:21:48;10.95;;;8.85;;
24102;SDS011;12278;53.058;9.028;2023-03-18T20:25:49;9.98;;;7.95;;
24102;SDS011;12278;53.058;9.028;2023-03-18T20:29:51;8.82;;;7.97;;
24102;SDS011;12278;53.058;9.028;2023-03-18T20:33:52;7.88;;;6.93;;
24102;SDS011;12278;53.058;9.028;2023-03-18T20:37:53;7.97;;;7.18;;
24102;SDS011;12278;53.058;9.028;2023-03-18T20:41:55;9.50;;;7.82;;
24102;SDS011;12278;53.058;9.028;2023-03-18T20:45:56;6.60;;;6.00;;
24102;SDS011;12278;53.058;9.028;2023-03-18T20:49:58;6.32;;;5.75;;
24102;SDS011;12278;53.058;9.028;2023-03-18T20:53:59;6.97;;;5.22;;
24102;SDS011;12278;53.058;9.028;2023-03-18T20:58:00;5.53;;;5.13;;
24102;SDS011;12278;53.058;9.028;2023-03-18T21:02:01;6.10;;;5.60;;
24102;SDS011;12278;53.058;9.028;2023-03-18T21:06:02;7.40;;;5.90;;
24102;SDS011;12278;53.058;9.028;2023-03-18T21:10:04;6.40;;;5.80;;
24102;SDS011;12278;53.058;9.028;2023-03-18T21:14:05;6.97;;;6.38;;
24102;SDS011;12278;53.058;9.028;2023-03-18T21:18:07;6.75;;;6.15;;
24102;SDS011;12278;53.058;9.028;2023-03-18T21:22:09;6.40;;;5.28;;
24102;SDS011;12278;53.058;9.028;2023-03-18T21:26:20;5.70;;;4.82;;
24102;SDS011;12278;53.058;9.028;2023-03-18T21:30:22;5.68;;;5.13;;
24102;SDS011;12278;53.058;9.028;2023-03-18T21:34:22;5.68;;;5.07;;
24102;SDS011;12278;53.058;9.028;2023-03-18T21:38:23;5.65;;;5.05;;
24102;SDS011;12278;53.058;9.028;2023-03-18T21:42:27;6.00;;;5.40;;
24102;SDS011;12278;53.058;9.028;2023-03-18T21:46:29;6.22;;;5.60;;
24102;SDS011;12278;53.058;9.028;2023-03-18T21:50:30;7.00;;;4.90;;
24102;SDS011;12278;53.058;9.028;2023-03-18T21:54:34;5.20;;;4.70;;
24102;SDS011;12278;53.058;9.028;2023-03-18T21:58:34;5.20;;;4.70;;
24102;SDS011;12278;53.058;9.028;2023-03-18T22:02:35;5.40;;;4.90;;
24102;SDS011;12278;53.058;9.028;2023-03-18T22:06:36;7.05;;;4.40;;
24102;SDS011;12278;53.058;9.028;2023-03-18T22:10:37;5.03;;;4.43;;
24102;SDS011;12278;53.058;9.028;2023-03-18T22:14:38;5.60;;;5.10;;
24102;SDS011;12278;53.058;9.028;2023-03-18T22:18:39;6.50;;;5.65;;
24102;SDS011;12278;53.058;9.028;2023-03-18T22:22:40;5.93;;;5.43;;
24102;SDS011;12278;53.058;9.028;2023-03-18T22:26:41;6.38;;;5.78;;
24102;SDS011;12278;53.058;9.028;2023-03-18T22:30:42;6.28;;;5.68;;
24102;SDS011;12278;53.058;9.028;2023-03-18T22:34:45;7.70;;;6.78;;
24102;SDS011;12278;53.058;9.028;2023-03-18T22:38:45;7.40;;;6.57;;
24102;SDS011;12278;53.058;9.028;2023-03-18T22:42:47;7.75;;;6.97;;
24102;SDS011;12278;53.058;9.028;2023-03-18T22:46:49;6.72;;;5.82;;
24102;SDS011;12278;53.058;9.028;2023-03-18T22:50:52;7.07;;;6.38;;
24102;SDS011;12278;53.058;9.028;2023-03-18T22:54:57;7.97;;;6.75;;
24102;SDS011;12278;53.058;9.028;2023-03-18T22:59:00;6.97;;;5.80;;
24102;SDS011;12278;53.058;9.028;2023-03-18T23:03:13;6.97;;;6.18;;
24102;SDS011;12278;53.058;9.028;2023-03-18T23:11:17;7.30;;;6.57;;
24102;SDS011;12278;53.058;9.028;2023-03-18T23:15:19;7.13;;;6.20;;
24102;SDS011;12278;53.058;9.028;2023-03-18T23:19:21;6.55;;;5.95;;
24102;SDS011;12278;53.058;9.028;2023-03-18T23:23:22;7.88;;;6.47;;
24102;SDS011;12278;53.058;9.028;2023-03-18T23:27:23;8.98;;;6.75;;
24102;SDS011;12278;53.058;9.028;2023-03-18T23:31:25;7.53;;;6.10;;
24102;SDS011;12278;53.058;9.028;2023-03-18T23:35:26;8.32;;;6.30;;
24102;SDS011;12278;53.058;9.028;2023-03-18T23:39:27;5.90;;;5.30;;
24102;SDS011;12278;53.058;9.028;2023-03-18T23:43:27;5.78;;;5.22;;
24102;SDS011;12278;53.058;9.028;2023-03-18T23:47:28;7.80;;;5.95;;
24102;SDS011;12278;53.058;9.028;2023-03-18T23:51:29;6.60;;;5.95;;
24102;SDS011;12278;53.058;9.028;2023-03-18T23:55:30;5.68;;;5.05;;
24102;SDS011;12278;53.058;9.028;2023-03-18T23:59:30;7.38;;;6.47;;
